sensor_id;sensor_type;location;lat;lon;timestamp;P1;durP1;ratioP1;P2;durP2;ratioP2
68168;SDS011;54981;50.206;15.978;2023-07-02T00:00:09;7.45;;;6.60;;
68168;SDS011;54981;50.206;15.978;2023-07-02T00:02:40;8.10;;;6.03;;
68168;SDS011;54981;50.206;15.978;2023-07-02T00:05:10;7.97;;;6.63;;
68168;SDS011;54981;50.206;15.978;2023-07-02T00:07:40;8.85;;;6.78;;
68168;SDS011;54981;50.206;15.978;2023-07-02T00:10:11;9.68;;;7.13;;
68168;SDS011;54981;50.206;15.978;2023-07-02T00:12:42;9.13;;;7.55;;
68168;SDS011;54981;50.206;15.978;2023-07-02T00:15:14;8.05;;;7.03;;
68168;SDS011;54981;50.206;15.978;2023-07-02T00:17:44;10.43;;;7.53;;
68168;SDS011;54981;50.206;15.978;2023-07-02T00:20:15;7.53;;;6.32;;
68168;SDS011;54981;50.206;15.978;2023-07-02T00:22:48;7.40;;;6.57;;
68168;SDS011;54981;50.206;15.978;2023-07-02T00:25:18;8.20;;;7.25;;
68168;SDS011;54981;50.206;15.978;2023-07-02T00:27:49;8.45;;;7.50;;
68168;SDS011;54981;50.206;15.978;2023-07-02T00:30:19;8.55;;;7.20;;
68168;SDS011;54981;50.206;15.978;2023-07-02T00:32:50;10.02;;;7.47;;
68168;SDS011;54981;50.206;15.978;2023-07-02T00:35:20;7.50;;;6.55;;
68168;SDS011;54981;50.206;15.978;2023-07-02T00:37:50;8.05;;;6.38;;
68168;SDS011;54981;50.206;15.978;2023-07-02T00:40:21;7.32;;;6.60;;
68168;SDS011;54981;50.206;15.978;2023-07-02T00:42:51;7.47;;;6.32;;
68168;SDS011;54981;50.206;15.978;2023-07-02T00:45:22;7.60;;;6.55;;
68168;SDS011;54981;50.206;15.978;2023-07-02T00:47:56;7.40;;;6.60;;
68168;SDS011;54981;50.206;15.978;2023-07-02T00:50:26;7.18;;;6.47;;
68168;SDS011;54981;50.206;15.978;2023-07-02T00:52:58;10.25;;;6.85;;
68168;SDS011;54981;50.206;15.978;2023-07-02T00:55:28;7.07;;;6.38;;
68168;SDS011;54981;50.206;15.978;2023-07-02T00:57:58;7.45;;;6.50;;
68168;SDS011;54981;50.206;15.978;2023-07-02T01:00:29;6.60;;;5.70;;
68168;SDS011;54981;50.206;15.978;2023-07-02T01:03:00;7.95;;;6.53;;
68168;SDS011;54981;50.206;15.978;2023-07-02T01:05:30;7.55;;;6.20;;
68168;SDS011;54981;50.206;15.978;2023-07-02T01:08:07;7.07;;;6.05;;
68168;SDS011;54981;50.206;15.978;2023-07-02T01:10:37;6.38;;;5.70;;
68168;SDS011;54981;50.206;15.978;2023-07-02T01:13:09;7.60;;;5.65;;
68168;SDS011;54981;50.206;15.978;2023-07-02T01:15:47;6.85;;;6.15;;
68168;SDS011;54981;50.206;15.978;2023-07-02T01:18:18;7.45;;;5.88;;
68168;SDS011;54981;50.206;15.978;2023-07-02T01:20:49;8.75;;;7.32;;
68168;SDS011;54981;50.206;15.978;2023-07-02T01:23:20;7.47;;;6.65;;
68168;SDS011;54981;50.206;15.978;2023-07-02T01:25:51;7.57;;;6.78;;
68168;SDS011;54981;50.206;15.978;2023-07-02T01:28:22;7.13;;;6.40;;
68168;SDS011;54981;50.206;15.978;2023-07-02T01:30:54;7.88;;;6.72;;
68168;SDS011;54981;50.206;15.978;2023-07-02T01:33:25;10.50;;;6.50;;
68168;SDS011;54981;50.206;15.978;2023-07-02T01:35:55;7.22;;;6.47;;
68168;SDS011;54981;50.206;15.978;2023-07-02T01:38:25;7.75;;;6.93;;
68168;SDS011;54981;50.206;15.978;2023-07-02T01:40:57;9.25;;;7.43;;
68168;SDS011;54981;50.206;15.978;2023-07-02T01:43:27;7.80;;;6.85;;
68168;SDS011;54981;50.206;15.978;2023-07-02T01:45:57;7.95;;;6.97;;
68168;SDS011;54981;50.206;15.978;2023-07-02T01:48:29;10.50;;;7.05;;
68168;SDS011;54981;50.206;15.978;2023-07-02T01:51:01;7.75;;;6.95;;
68168;SDS011;54981;50.206;15.978;2023-07-02T01:53:32;7.75;;;6.95;;
68168;SDS011;54981;50.206;15.978;2023-07-02T01:56:03;7.68;;;6.95;;
68168;SDS011;54981;50.206;15.978;2023-07-02T01:58:33;7.95;;;7.00;;
68168;SDS011;54981;50.206;15.978;2023-07-02T02:01:04;9.43;;;7.32;;
68168;SDS011;54981;50.206;15.978;2023-07-02T02:03:34;6.85;;;6.13;;
68168;SDS011;54981;50.206;15.978;2023-07-02T02:06:04;7.35;;;6.47;;
68168;SDS011;54981;50.206;15.978;2023-07-02T02:08:35;7.50;;;6.35;;
68168;SDS011;54981;50.206;15.978;2023-07-02T02:11:05;8.05;;;6.38;;
68168;SDS011;54981;50.206;15.978;2023-07-02T02:13:35;7.13;;;6.43;;
68168;SDS011;54981;50.206;15.978;2023-07-02T02:16:06;6.65;;;5.95;;
68168;SDS011;54981;50.206;15.978;2023-07-02T02:18:36;6.85;;;5.55;;
68168;SDS011;54981;50.206;15.978;2023-07-02T02:21:07;7.10;;;6.40;;
68168;SDS011;54981;50.206;15.978;2023-07-02T02:23:37;6.32;;;5.65;;
68168;SDS011;54981;50.206;15.978;2023-07-02T02:26:08;7.45;;;5.32;;
68168;SDS011;54981;50.206;15.978;2023-07-02T02:28:38;9.57;;;5.72;;
68168;SDS011;54981;50.206;15.978;2023-07-02T02:31:09;8.57;;;6.00;;
68168;SDS011;54981;50.206;15.978;2023-07-02T02:33:39;6.85;;;5.45;;
68168;SDS011;54981;50.206;15.978;2023-07-02T02:36:09;6.75;;;5.75;;
68168;SDS011;54981;50.206;15.978;2023-07-02T02:38:40;6.45;;;5.68;;
68168;SDS011;54981;50.206;15.978;2023-07-02T02:41:10;7.47;;;5.47;;
68168;SDS011;54981;50.206;15.978;2023-07-02T02:43:41;5.85;;;5.10;;
68168;SDS011;54981;50.206;15.978;2023-07-02T02:46:12;6.13;;;5.05;;
68168;SDS011;54981;50.206;15.978;2023-07-02T02:48:50;7.20;;;5.00;;
68168;SDS011;54981;50.206;15.978;2023-07-02T02:51:24;6.13;;;5.30;;
68168;SDS011;54981;50.206;15.978;2023-07-02T02:53:54;5.30;;;4.70;;
68168;SDS011;54981;50.206;15.978;2023-07-02T02:56:24;6.03;;;5.22;;
68168;SDS011;54981;50.206;15.978;2023-07-02T02:58:55;6.45;;;4.82;;
68168;SDS011;54981;50.206;15.978;2023-07-02T03:01:25;6.72;;;5.70;;
68168;SDS011;54981;50.206;15.978;2023-07-02T03:04:00;8.02;;;4.70;;
68168;SDS011;54981;50.206;15.978;2023-07-02T03:06:31;6.72;;;5.15;;
68168;SDS011;54981;50.206;15.978;2023-07-02T03:09:01;6.55;;;4.80;;
68168;SDS011;54981;50.206;15.978;2023-07-02T03:11:32;5.25;;;4.38;;
68168;SDS011;54981;50.206;15.978;2023-07-02T03:14:02;7.18;;;4.60;;
68168;SDS011;54981;50.206;15.978;2023-07-02T03:16:33;5.75;;;5.15;;
68168;SDS011;54981;50.206;15.978;2023-07-02T03:19:03;6.60;;;4.78;;
68168;SDS011;54981;50.206;15.978;2023-07-02T03:21:34;5.95;;;5.32;;
68168;SDS011;54981;50.206;15.978;2023-07-02T03:24:04;6.72;;;4.78;;
68168;SDS011;54981;50.206;15.978;2023-07-02T03:26:35;6.45;;;5.32;;
68168;SDS011;54981;50.206;15.978;2023-07-02T03:29:06;5.75;;;5.25;;
68168;SDS011;54981;50.206;15.978;2023-07-02T03:31:37;5.95;;;5.45;;
68168;SDS011;54981;50.206;15.978;2023-07-02T03:34:08;7.30;;;5.50;;
68168;SDS011;54981;50.206;15.978;2023-07-02T03:36:39;6.22;;;4.80;;
68168;SDS011;54981;50.206;15.978;2023-07-02T03:39:10;7.25;;;5.38;;
68168;SDS011;54981;50.206;15.978;2023-07-02T03:41:41;6.75;;;5.10;;
68168;SDS011;54981;50.206;15.978;2023-07-02T03:44:11;6.13;;;4.78;;
68168;SDS011;54981;50.206;15.978;2023-07-02T03:46:41;5.38;;;4.88;;
68168;SDS011;54981;50.206;15.978;2023-07-02T03:49:13;5.78;;;4.93;;
68168;SDS011;54981;50.206;15.978;2023-07-02T03:51:43;5.43;;;4.93;;
68168;SDS011;54981;50.206;15.978;2023-07-02T03:54:14;5.72;;;4.63;;
68168;SDS011;54981;50.206;15.978;2023-07-02T03:56:44;5.55;;;4.90;;
68168;SDS011;54981;50.206;15.978;2023-07-02T03:59:14;6.07;;;4.75;;
68168;SDS011;54981;50.206;15.978;2023-07-02T04:01:45;5.05;;;4.20;;
68168;SDS011;54981;50.206;15.978;2023-07-02T04:04:15;5.38;;;3.80;;
68168;SDS011;54981;50.206;15.978;2023-07-02T04:06:46;4.88;;;4.45;;
68168;SDS011;54981;50.206;15.978;2023-07-02T04:09:16;4.47;;;4.07;;
68168;SDS011;54981;50.206;15.978;2023-07-02T04:11:48;6.85;;;4.60;;
68168;SDS011;54981;50.206;15.978;2023-07-02T04:14:18;5.30;;;4.68;;
68168;SDS011;54981;50.206;15.978;2023-07-02T04:16:49;4.78;;;4.25;;
68168;SDS011;54981;50.206;15.978;2023-07-02T04:19:19;4.90;;;4.47;;
68168;SDS011;54981;50.206;15.978;2023-07-02T04:21:49;5.13;;;4.35;;
68168;SDS011;54981;50.206;15.978;2023-07-02T04:24:20;5.47;;;4.97;;
68168;SDS011;54981;50.206;15.978;2023-07-02T04:26:50;5.88;;;4.57;;
68168;SDS011;54981;50.206;15.978;2023-07-02T04:29:21;7.05;;;4.50;;
68168;SDS011;54981;50.206;15.978;2023-07-02T04:31:51;5.13;;;4.63;;
68168;SDS011;54981;50.206;15.978;2023-07-02T04:34:21;5.65;;;4.57;;
68168;SDS011;54981;50.206;15.978;2023-07-02T04:36:52;5.65;;;4.40;;
68168;SDS011;54981;50.206;15.978;2023-07-02T04:39:22;5.72;;;4.60;;
68168;SDS011;54981;50.206;15.978;2023-07-02T04:41:52;6.00;;;4.32;;
68168;SDS011;54981;50.206;15.978;2023-07-02T04:44:23;4.95;;;4.55;;
68168;SDS011;54981;50.206;15.978;2023-07-02T04:47:00;5.15;;;4.68;;
68168;SDS011;54981;50.206;15.978;2023-07-02T04:49:31;6.18;;;4.57;;
68168;SDS011;54981;50.206;15.978;2023-07-02T04:52:01;4.32;;;3.92;;
68168;SDS011;54981;50.206;15.978;2023-07-02T04:54:31;4.50;;;4.10;;
68168;SDS011;54981;50.206;15.978;2023-07-02T04:57:02;4.40;;;4.00;;
68168;SDS011;54981;50.206;15.978;2023-07-02T04:59:33;4.95;;;4.13;;
68168;SDS011;54981;50.206;15.978;2023-07-02T05:02:03;4.95;;;4.47;;
68168;SDS011;54981;50.206;15.978;2023-07-02T05:04:34;4.85;;;4.43;;
68168;SDS011;54981;50.206;15.978;2023-07-02T05:07:07;4.57;;;3.95;;
68168;SDS011;54981;50.206;15.978;2023-07-02T05:09:37;4.82;;;3.92;;
68168;SDS011;54981;50.206;15.978;2023-07-02T05:12:08;5.95;;;4.50;;
68168;SDS011;54981;50.206;15.978;2023-07-02T05:14:39;5.47;;;4.40;;
68168;SDS011;54981;50.206;15.978;2023-07-02T05:17:09;4.50;;;3.95;;
68168;SDS011;54981;50.206;15.978;2023-07-02T05:19:40;4.53;;;4.13;;
68168;SDS011;54981;50.206;15.978;2023-07-02T05:22:11;4.95;;;4.32;;
68168;SDS011;54981;50.206;15.978;2023-07-02T05:24:41;4.80;;;4.40;;
68168;SDS011;54981;50.206;15.978;2023-07-02T05:27:11;4.45;;;3.63;;
68168;SDS011;54981;50.206;15.978;2023-07-02T05:29:42;4.53;;;3.80;;
68168;SDS011;54981;50.206;15.978;2023-07-02T05:32:13;4.05;;;3.65;;
68168;SDS011;54981;50.206;15.978;2023-07-02T05:34:43;4.18;;;3.78;;
68168;SDS011;54981;50.206;15.978;2023-07-02T05:37:14;4.57;;;3.72;;
68168;SDS011;54981;50.206;15.978;2023-07-02T05:39:44;3.63;;;3.33;;
68168;SDS011;54981;50.206;15.978;2023-07-02T05:42:14;3.42;;;3.20;;
68168;SDS011;54981;50.206;15.978;2023-07-02T05:44:45;4.13;;;3.83;;
68168;SDS011;54981;50.206;15.978;2023-07-02T05:47:15;4.10;;;3.70;;
68168;SDS011;54981;50.206;15.978;2023-07-02T05:49:46;4.35;;;3.45;;
68168;SDS011;54981;50.206;15.978;2023-07-02T05:52:16;4.55;;;3.63;;
68168;SDS011;54981;50.206;15.978;2023-07-02T05:54:46;3.58;;;3.28;;
68168;SDS011;54981;50.206;15.978;2023-07-02T05:57:17;5.10;;;3.45;;
68168;SDS011;54981;50.206;15.978;2023-07-02T05:59:47;4.28;;;3.88;;
68168;SDS011;54981;50.206;15.978;2023-07-02T06:02:17;3.78;;;3.47;;
68168;SDS011;54981;50.206;15.978;2023-07-02T06:04:48;3.40;;;2.97;;
68168;SDS011;54981;50.206;15.978;2023-07-02T06:07:18;3.60;;;3.22;;
68168;SDS011;54981;50.206;15.978;2023-07-02T06:09:49;3.47;;;3.17;;
68168;SDS011;54981;50.206;15.978;2023-07-02T06:12:20;3.88;;;3.22;;
68168;SDS011;54981;50.206;15.978;2023-07-02T06:14:51;5.85;;;3.95;;
68168;SDS011;54981;50.206;15.978;2023-07-02T06:17:21;3.70;;;3.33;;
68168;SDS011;54981;50.206;15.978;2023-07-02T06:19:52;3.65;;;3.33;;
68168;SDS011;54981;50.206;15.978;2023-07-02T06:22:23;4.80;;;3.70;;
68168;SDS011;54981;50.206;15.978;2023-07-02T06:24:53;4.80;;;3.55;;
68168;SDS011;54981;50.206;15.978;2023-07-02T06:27:23;4.28;;;3.88;;
68168;SDS011;54981;50.206;15.978;2023-07-02T06:29:54;5.00;;;3.60;;
68168;SDS011;54981;50.206;15.978;2023-07-02T06:32:24;3.67;;;3.38;;
68168;SDS011;54981;50.206;15.978;2023-07-02T06:34:55;3.88;;;3.45;;
68168;SDS011;54981;50.206;15.978;2023-07-02T06:37:25;3.78;;;3.47;;
68168;SDS011;54981;50.206;15.978;2023-07-02T06:39:55;4.93;;;3.90;;
68168;SDS011;54981;50.206;15.978;2023-07-02T06:42:26;4.22;;;3.83;;
68168;SDS011;54981;50.206;15.978;2023-07-02T06:44:57;3.72;;;3.22;;
68168;SDS011;54981;50.206;15.978;2023-07-02T06:47:27;3.60;;;3.30;;
68168;SDS011;54981;50.206;15.978;2023-07-02T06:49:57;4.03;;;3.63;;
68168;SDS011;54981;50.206;15.978;2023-07-02T06:52:29;4.70;;;3.70;;
68168;SDS011;54981;50.206;15.978;2023-07-02T06:54:59;4.03;;;3.63;;
68168;SDS011;54981;50.206;15.978;2023-07-02T06:57:29;4.50;;;3.30;;
68168;SDS011;54981;50.206;15.978;2023-07-02T07:00:00;3.88;;;3.50;;
68168;SDS011;54981;50.206;15.978;2023-07-02T07:02:31;3.90;;;3.50;;
68168;SDS011;54981;50.206;15.978;2023-07-02T07:05:01;3.83;;;3.53;;
68168;SDS011;54981;50.206;15.978;2023-07-02T07:07:31;3.90;;;3.60;;
68168;SDS011;54981;50.206;15.978;2023-07-02T07:10:02;4.88;;;3.80;;
68168;SDS011;54981;50.206;15.978;2023-07-02T07:12:33;3.80;;;3.45;;
68168;SDS011;54981;50.206;15.978;2023-07-02T07:15:04;5.05;;;3.60;;
68168;SDS011;54981;50.206;15.978;2023-07-02T07:17:35;3.50;;;3.20;;
68168;SDS011;54981;50.206;15.978;2023-07-02T07:20:05;3.72;;;3.42;;
68168;SDS011;54981;50.206;15.978;2023-07-02T07:22:36;4.72;;;3.78;;
68168;SDS011;54981;50.206;15.978;2023-07-02T07:25:07;4.20;;;3.65;;
68168;SDS011;54981;50.206;15.978;2023-07-02T07:27:38;4.65;;;3.80;;
68168;SDS011;54981;50.206;15.978;2023-07-02T07:30:08;4.18;;;3.78;;
68168;SDS011;54981;50.206;15.978;2023-07-02T07:32:39;4.22;;;3.63;;
68168;SDS011;54981;50.206;15.978;2023-07-02T07:35:09;6.43;;;4.28;;
68168;SDS011;54981;50.206;15.978;2023-07-02T07:37:39;4.32;;;3.72;;
68168;SDS011;54981;50.206;15.978;2023-07-02T07:40:10;3.90;;;3.40;;
68168;SDS011;54981;50.206;15.978;2023-07-02T07:42:41;3.95;;;3.60;;
68168;SDS011;54981;50.206;15.978;2023-07-02T07:45:15;4.53;;;3.70;;
68168;SDS011;54981;50.206;15.978;2023-07-02T07:47:45;6.75;;;3.95;;
68168;SDS011;54981;50.206;15.978;2023-07-02T07:50:15;3.88;;;3.55;;
68168;SDS011;54981;50.206;15.978;2023-07-02T07:52:47;4.80;;;3.92;;
68168;SDS011;54981;50.206;15.978;2023-07-02T07:55:18;4.60;;;3.55;;
68168;SDS011;54981;50.206;15.978;2023-07-02T07:57:48;5.35;;;3.70;;
68168;SDS011;54981;50.206;15.978;2023-07-02T08:00:18;3.47;;;2.80;;
68168;SDS011;54981;50.206;15.978;2023-07-02T08:02:49;3.75;;;3.45;;
68168;SDS011;54981;50.206;15.978;2023-07-02T08:05:22;3.38;;;3.05;;
68168;SDS011;54981;50.206;15.978;2023-07-02T08:07:53;3.97;;;3.22;;
68168;SDS011;54981;50.206;15.978;2023-07-02T08:10:27;3.03;;;2.80;;
68168;SDS011;54981;50.206;15.978;2023-07-02T08:12:57;4.10;;;3.25;;
68168;SDS011;54981;50.206;15.978;2023-07-02T08:15:28;3.60;;;3.30;;
68168;SDS011;54981;50.206;15.978;2023-07-02T08:17:58;3.13;;;2.80;;
68168;SDS011;54981;50.206;15.978;2023-07-02T08:20:29;3.33;;;2.80;;
68168;SDS011;54981;50.206;15.978;2023-07-02T08:23:00;3.45;;;3.15;;
68168;SDS011;54981;50.206;15.978;2023-07-02T08:25:30;3.35;;;3.05;;
68168;SDS011;54981;50.206;15.978;2023-07-02T08:28:01;3.65;;;3.33;;
68168;SDS011;54981;50.206;15.978;2023-07-02T08:30:31;3.50;;;3.20;;
68168;SDS011;54981;50.206;15.978;2023-07-02T08:33:03;4.82;;;3.28;;
68168;SDS011;54981;50.206;15.978;2023-07-02T08:35:33;3.75;;;3.40;;
68168;SDS011;54981;50.206;15.978;2023-07-02T08:38:03;4.28;;;3.88;;
68168;SDS011;54981;50.206;15.978;2023-07-02T08:40:34;4.50;;;4.10;;
68168;SDS011;54981;50.206;15.978;2023-07-02T08:43:04;6.47;;;4.00;;
68168;SDS011;54981;50.206;15.978;2023-07-02T08:45:35;4.85;;;4.35;;
68168;SDS011;54981;50.206;15.978;2023-07-02T08:48:06;5.53;;;4.07;;
68168;SDS011;54981;50.206;15.978;2023-07-02T08:50:37;5.20;;;4.70;;
68168;SDS011;54981;50.206;15.978;2023-07-02T08:53:07;6.00;;;4.80;;
68168;SDS011;54981;50.206;15.978;2023-07-02T08:55:37;5.65;;;5.03;;
68168;SDS011;54981;50.206;15.978;2023-07-02T08:58:08;6.10;;;5.38;;
68168;SDS011;54981;50.206;15.978;2023-07-02T09:00:38;5.00;;;4.60;;
68168;SDS011;54981;50.206;15.978;2023-07-02T09:03:12;4.68;;;4.28;;
68168;SDS011;54981;50.206;15.978;2023-07-02T09:05:48;5.20;;;4.80;;
68168;SDS011;54981;50.206;15.978;2023-07-02T09:08:24;4.80;;;4.28;;
68168;SDS011;54981;50.206;15.978;2023-07-02T09:13:49;7.68;;;4.78;;
68168;SDS011;54981;50.206;15.978;2023-07-02T09:16:21;4.35;;;3.97;;
68168;SDS011;54981;50.206;15.978;2023-07-02T09:18:55;5.00;;;4.45;;
68168;SDS011;54981;50.206;15.978;2023-07-02T09:21:27;4.88;;;4.38;;
68168;SDS011;54981;50.206;15.978;2023-07-02T09:24:15;5.13;;;4.72;;
68168;SDS011;54981;50.206;15.978;2023-07-02T09:26:46;4.25;;;3.85;;
68168;SDS011;54981;50.206;15.978;2023-07-02T09:29:27;4.00;;;3.70;;
68168;SDS011;54981;50.206;15.978;2023-07-02T09:32:05;4.63;;;4.22;;
68168;SDS011;54981;50.206;15.978;2023-07-02T09:34:38;6.38;;;3.90;;
68168;SDS011;54981;50.206;15.978;2023-07-02T09:37:11;4.53;;;4.13;;
68168;SDS011;54981;50.206;15.978;2023-07-02T09:39:41;4.88;;;4.47;;
68168;SDS011;54981;50.206;15.978;2023-07-02T09:42:12;4.20;;;3.72;;
68168;SDS011;54981;50.206;15.978;2023-07-02T09:44:43;5.72;;;4.00;;
68168;SDS011;54981;50.206;15.978;2023-07-02T09:47:14;5.30;;;3.80;;
68168;SDS011;54981;50.206;15.978;2023-07-02T09:49:49;5.53;;;4.78;;
68168;SDS011;54981;50.206;15.978;2023-07-02T09:52:23;4.78;;;4.38;;
68168;SDS011;54981;50.206;15.978;2023-07-02T09:54:55;4.57;;;3.90;;
68168;SDS011;54981;50.206;15.978;2023-07-02T09:57:26;4.35;;;3.90;;
68168;SDS011;54981;50.206;15.978;2023-07-02T10:00:01;4.57;;;3.90;;
68168;SDS011;54981;50.206;15.978;2023-07-02T10:02:32;4.22;;;3.90;;
68168;SDS011;54981;50.206;15.978;2023-07-02T10:05:03;4.30;;;3.90;;
68168;SDS011;54981;50.206;15.978;2023-07-02T10:07:34;3.70;;;3.40;;
68168;SDS011;54981;50.206;15.978;2023-07-02T10:10:05;4.50;;;3.97;;
68168;SDS011;54981;50.206;15.978;2023-07-02T10:12:45;5.18;;;3.80;;
68168;SDS011;54981;50.206;15.978;2023-07-02T10:15:23;3.58;;;3.30;;
68168;SDS011;54981;50.206;15.978;2023-07-02T10:17:56;4.63;;;4.00;;
68168;SDS011;54981;50.206;15.978;2023-07-02T10:20:31;3.97;;;3.67;;
68168;SDS011;54981;50.206;15.978;2023-07-02T10:23:06;3.58;;;3.20;;
68168;SDS011;54981;50.206;15.978;2023-07-02T10:28:20;3.28;;;3.03;;
68168;SDS011;54981;50.206;15.978;2023-07-02T10:30:56;5.10;;;3.40;;
68168;SDS011;54981;50.206;15.978;2023-07-02T10:33:27;3.47;;;3.17;;
68168;SDS011;54981;50.206;15.978;2023-07-02T10:35:57;3.40;;;3.10;;
68168;SDS011;54981;50.206;15.978;2023-07-02T10:38:28;4.05;;;3.03;;
68168;SDS011;54981;50.206;15.978;2023-07-02T10:40:58;3.65;;;2.95;;
68168;SDS011;54981;50.206;15.978;2023-07-02T10:43:33;3.28;;;2.97;;
68168;SDS011;54981;50.206;15.978;2023-07-02T10:46:03;3.90;;;3.20;;
68168;SDS011;54981;50.206;15.978;2023-07-02T10:48:34;2.90;;;2.70;;
68168;SDS011;54981;50.206;15.978;2023-07-02T10:51:11;3.67;;;3.10;;
68168;SDS011;54981;50.206;15.978;2023-07-02T10:53:43;3.17;;;2.88;;
68168;SDS011;54981;50.206;15.978;2023-07-02T10:56:16;2.70;;;2.50;;
68168;SDS011;54981;50.206;15.978;2023-07-02T10:58:47;4.60;;;2.90;;
68168;SDS011;54981;50.206;15.978;2023-07-02T11:01:21;3.03;;;2.72;;
68168;SDS011;54981;50.206;15.978;2023-07-02T11:04:00;3.25;;;2.95;;
68168;SDS011;54981;50.206;15.978;2023-07-02T11:06:34;3.03;;;2.75;;
68168;SDS011;54981;50.206;15.978;2023-07-02T11:09:14;4.13;;;2.90;;
68168;SDS011;54981;50.206;15.978;2023-07-02T11:14:30;3.15;;;2.85;;
68168;SDS011;54981;50.206;15.978;2023-07-02T11:17:04;4.13;;;2.70;;
68168;SDS011;54981;50.206;15.978;2023-07-02T11:19:36;3.13;;;2.88;;
68168;SDS011;54981;50.206;15.978;2023-07-02T11:22:06;3.20;;;2.88;;
68168;SDS011;54981;50.206;15.978;2023-07-02T11:24:37;3.92;;;3.00;;
68168;SDS011;54981;50.206;15.978;2023-07-02T11:27:07;7.20;;;3.08;;
68168;SDS011;54981;50.206;15.978;2023-07-02T11:29:38;3.47;;;2.97;;
68168;SDS011;54981;50.206;15.978;2023-07-02T11:32:09;3.72;;;2.95;;
68168;SDS011;54981;50.206;15.978;2023-07-02T11:34:40;3.20;;;2.90;;
68168;SDS011;54981;50.206;15.978;2023-07-02T11:37:11;4.40;;;2.92;;
68168;SDS011;54981;50.206;15.978;2023-07-02T11:39:42;3.80;;;3.30;;
68168;SDS011;54981;50.206;15.978;2023-07-02T11:42:13;4.82;;;3.00;;
68168;SDS011;54981;50.206;15.978;2023-07-02T11:44:44;3.30;;;2.90;;
68168;SDS011;54981;50.206;15.978;2023-07-02T11:47:14;3.25;;;2.90;;
68168;SDS011;54981;50.206;15.978;2023-07-02T11:49:44;3.40;;;3.10;;
68168;SDS011;54981;50.206;15.978;2023-07-02T11:52:15;2.88;;;2.63;;
68168;SDS011;54981;50.206;15.978;2023-07-02T11:54:45;3.80;;;3.33;;
68168;SDS011;54981;50.206;15.978;2023-07-02T11:57:16;3.47;;;3.10;;
68168;SDS011;54981;50.206;15.978;2023-07-02T11:59:46;4.22;;;3.20;;
68168;SDS011;54981;50.206;15.978;2023-07-02T12:02:17;3.30;;;2.70;;
68168;SDS011;54981;50.206;15.978;2023-07-02T12:04:47;3.33;;;3.00;;
68168;SDS011;54981;50.206;15.978;2023-07-02T12:07:18;4.63;;;2.80;;
68168;SDS011;54981;50.206;15.978;2023-07-02T12:09:48;3.10;;;2.80;;
68168;SDS011;54981;50.206;15.978;2023-07-02T12:12:19;2.80;;;2.60;;
68168;SDS011;54981;50.206;15.978;2023-07-02T12:14:49;3.40;;;2.70;;
68168;SDS011;54981;50.206;15.978;2023-07-02T12:17:19;3.30;;;3.00;;
68168;SDS011;54981;50.206;15.978;2023-07-02T12:19:50;3.28;;;2.97;;
68168;SDS011;54981;50.206;15.978;2023-07-02T12:22:20;5.22;;;3.13;;
68168;SDS011;54981;50.206;15.978;2023-07-02T12:24:52;4.13;;;3.22;;
68168;SDS011;54981;50.206;15.978;2023-07-02T12:27:25;3.42;;;3.13;;
68168;SDS011;54981;50.206;15.978;2023-07-02T12:29:57;3.88;;;3.00;;
68168;SDS011;54981;50.206;15.978;2023-07-02T12:32:27;3.25;;;2.88;;
68168;SDS011;54981;50.206;15.978;2023-07-02T12:34:57;4.30;;;3.00;;
68168;SDS011;54981;50.206;15.978;2023-07-02T12:37:28;4.30;;;2.88;;
68168;SDS011;54981;50.206;15.978;2023-07-02T12:39:58;3.65;;;2.70;;
68168;SDS011;54981;50.206;15.978;2023-07-02T12:42:29;5.05;;;2.80;;
68168;SDS011;54981;50.206;15.978;2023-07-02T12:44:59;3.13;;;2.85;;
68168;SDS011;54981;50.206;15.978;2023-07-02T12:47:29;4.50;;;3.13;;
68168;SDS011;54981;50.206;15.978;2023-07-02T12:50:00;3.83;;;3.00;;
68168;SDS011;54981;50.206;15.978;2023-07-02T12:52:31;3.17;;;2.88;;
68168;SDS011;54981;50.206;15.978;2023-07-02T12:55:02;4.72;;;2.92;;
68168;SDS011;54981;50.206;15.978;2023-07-02T12:57:33;4.55;;;3.08;;
68168;SDS011;54981;50.206;15.978;2023-07-02T13:00:04;3.25;;;2.95;;
68168;SDS011;54981;50.206;15.978;2023-07-02T13:02:38;3.15;;;2.80;;
68168;SDS011;54981;50.206;15.978;2023-07-02T13:05:09;3.17;;;2.90;;
68168;SDS011;54981;50.206;15.978;2023-07-02T13:07:39;4.18;;;2.90;;
68168;SDS011;54981;50.206;15.978;2023-07-02T13:10:10;2.70;;;2.50;;
68168;SDS011;54981;50.206;15.978;2023-07-02T13:12:40;3.10;;;2.80;;
68168;SDS011;54981;50.206;15.978;2023-07-02T13:15:11;4.55;;;2.80;;
68168;SDS011;54981;50.206;15.978;2023-07-02T13:17:42;2.40;;;2.20;;
68168;SDS011;54981;50.206;15.978;2023-07-02T13:20:13;2.85;;;2.63;;
68168;SDS011;54981;50.206;15.978;2023-07-02T13:22:44;3.88;;;2.65;;
68168;SDS011;54981;50.206;15.978;2023-07-02T13:25:14;2.97;;;2.70;;
68168;SDS011;54981;50.206;15.978;2023-07-02T13:27:45;5.07;;;2.88;;
68168;SDS011;54981;50.206;15.978;2023-07-02T13:30:15;3.78;;;2.65;;
68168;SDS011;54981;50.206;15.978;2023-07-02T13:32:45;4.35;;;3.05;;
68168;SDS011;54981;50.206;15.978;2023-07-02T13:35:16;2.97;;;2.67;;
68168;SDS011;54981;50.206;15.978;2023-07-02T13:37:46;3.53;;;2.60;;
68168;SDS011;54981;50.206;15.978;2023-07-02T13:40:17;6.10;;;2.90;;
68168;SDS011;54981;50.206;15.978;2023-07-02T13:42:48;4.40;;;2.85;;
68168;SDS011;54981;50.206;15.978;2023-07-02T13:45:18;3.90;;;2.95;;
68168;SDS011;54981;50.206;15.978;2023-07-02T13:47:49;6.22;;;3.33;;
68168;SDS011;54981;50.206;15.978;2023-07-02T13:50:19;3.47;;;3.17;;
68168;SDS011;54981;50.206;15.978;2023-07-02T13:52:49;3.50;;;3.10;;
68168;SDS011;54981;50.206;15.978;2023-07-02T13:55:20;4.55;;;3.22;;
68168;SDS011;54981;50.206;15.978;2023-07-02T13:57:56;5.03;;;3.13;;
68168;SDS011;54981;50.206;15.978;2023-07-02T14:00:27;3.00;;;2.80;;
68168;SDS011;54981;50.206;15.978;2023-07-02T14:02:58;3.17;;;2.88;;
68168;SDS011;54981;50.206;15.978;2023-07-02T14:05:28;4.03;;;3.08;;
68168;SDS011;54981;50.206;15.978;2023-07-02T14:07:59;5.75;;;3.53;;
68168;SDS011;54981;50.206;15.978;2023-07-02T14:10:29;4.10;;;3.10;;
68168;SDS011;54981;50.206;15.978;2023-07-02T14:12:59;4.03;;;2.97;;
68168;SDS011;54981;50.206;15.978;2023-07-02T14:15:30;4.97;;;3.00;;
68168;SDS011;54981;50.206;15.978;2023-07-02T14:18:00;4.32;;;2.38;;
68168;SDS011;54981;50.206;15.978;2023-07-02T14:20:31;4.32;;;2.78;;
68168;SDS011;54981;50.206;15.978;2023-07-02T14:23:01;3.03;;;2.72;;
68168;SDS011;54981;50.206;15.978;2023-07-02T14:25:31;3.83;;;3.08;;
68168;SDS011;54981;50.206;15.978;2023-07-02T14:28:02;5.68;;;3.38;;
68168;SDS011;54981;50.206;15.978;2023-07-02T14:30:32;4.80;;;3.60;;
68168;SDS011;54981;50.206;15.978;2023-07-02T14:33:03;3.47;;;2.92;;
68168;SDS011;54981;50.206;15.978;2023-07-02T14:35:33;4.40;;;3.17;;
68168;SDS011;54981;50.206;15.978;2023-07-02T14:38:05;3.20;;;2.90;;
68168;SDS011;54981;50.206;15.978;2023-07-02T14:40:35;3.60;;;3.03;;
68168;SDS011;54981;50.206;15.978;2023-07-02T14:43:06;3.30;;;3.00;;
68168;SDS011;54981;50.206;15.978;2023-07-02T14:45:42;5.60;;;3.08;;
68168;SDS011;54981;50.206;15.978;2023-07-02T14:48:16;3.75;;;2.92;;
68168;SDS011;54981;50.206;15.978;2023-07-02T14:50:47;5.70;;;2.78;;
68168;SDS011;54981;50.206;15.978;2023-07-02T14:53:20;3.33;;;2.97;;
68168;SDS011;54981;50.206;15.978;2023-07-02T14:55:50;3.83;;;3.10;;
68168;SDS011;54981;50.206;15.978;2023-07-02T14:58:21;3.22;;;2.70;;
68168;SDS011;54981;50.206;15.978;2023-07-02T15:00:54;3.60;;;3.30;;
68168;SDS011;54981;50.206;15.978;2023-07-02T15:03:26;4.05;;;2.90;;